sensor_id;sensor_type;location;lat;lon;timestamp;P1;durP1;ratioP1;P2;durP2;ratioP2
1977;SDS011;989;53.016;8.346;2023-12-28T00:01:49;2.50;;;2.20;;
1977;SDS011;989;53.016;8.346;2023-12-28T00:04:15;2.30;;;1.63;;
1977;SDS011;989;53.016;8.346;2023-12-28T00:06:40;1.90;;;1.50;;
1977;SDS011;989;53.016;8.346;2023-12-28T00:09:06;3.97;;;2.13;;
1977;SDS011;989;53.016;8.346;2023-12-28T00:11:32;1.53;;;1.43;;
1977;SDS011;989;53.016;8.346;2023-12-28T00:13:57;1.70;;;1.50;;
1977;SDS011;989;53.016;8.346;2023-12-28T00:16:22;1.80;;;1.70;;
1977;SDS011;989;53.016;8.346;2023-12-28T00:18:48;2.23;;;1.70;;
1977;SDS011;989;53.016;8.346;2023-12-28T00:21:13;2.03;;;1.80;;
1977;SDS011;989;53.016;8.346;2023-12-28T00:23:38;3.63;;;1.67;;
1977;SDS011;989;53.016;8.346;2023-12-28T00:26:03;2.93;;;1.80;;
1977;SDS011;989;53.016;8.346;2023-12-28T00:28:29;2.10;;;1.87;;
1977;SDS011;989;53.016;8.346;2023-12-28T00:30:55;2.77;;;1.90;;
1977;SDS011;989;53.016;8.346;2023-12-28T00:33:20;2.37;;;1.47;;
1977;SDS011;989;53.016;8.346;2023-12-28T00:35:45;2.80;;;1.70;;
1977;SDS011;989;53.016;8.346;2023-12-28T00:38:10;1.97;;;1.87;;
1977;SDS011;989;53.016;8.346;2023-12-28T00:40:35;1.57;;;1.47;;
1977;SDS011;989;53.016;8.346;2023-12-28T00:43:01;2.07;;;1.97;;
1977;SDS011;989;53.016;8.346;2023-12-28T00:45:26;3.47;;;2.03;;
1977;SDS011;989;53.016;8.346;2023-12-28T00:47:51;4.27;;;2.10;;
1977;SDS011;989;53.016;8.346;2023-12-28T00:50:17;2.17;;;1.67;;
1977;SDS011;989;53.016;8.346;2023-12-28T00:52:42;3.03;;;1.73;;
1977;SDS011;989;53.016;8.346;2023-12-28T00:55:07;3.43;;;2.07;;
1977;SDS011;989;53.016;8.346;2023-12-28T00:57:33;1.80;;;1.60;;
1977;SDS011;989;53.016;8.346;2023-12-28T00:59:58;2.37;;;1.60;;
1977;SDS011;989;53.016;8.346;2023-12-28T01:02:23;2.80;;;1.70;;
1977;SDS011;989;53.016;8.346;2023-12-28T01:04:48;2.20;;;1.77;;
1977;SDS011;989;53.016;8.346;2023-12-28T01:07:13;4.67;;;2.07;;
1977;SDS011;989;53.016;8.346;2023-12-28T01:09:39;2.00;;;1.80;;
1977;SDS011;989;53.016;8.346;2023-12-28T01:12:04;1.50;;;1.40;;
1977;SDS011;989;53.016;8.346;2023-12-28T01:14:30;2.67;;;1.83;;
1977;SDS011;989;53.016;8.346;2023-12-28T01:16:55;2.03;;;1.60;;
1977;SDS011;989;53.016;8.346;2023-12-28T01:19:20;2.10;;;1.43;;
1977;SDS011;989;53.016;8.346;2023-12-28T01:21:46;2.43;;;2.23;;
1977;SDS011;989;53.016;8.346;2023-12-28T01:24:11;1.90;;;1.80;;
1977;SDS011;989;53.016;8.346;2023-12-28T01:26:36;2.20;;;1.93;;
1977;SDS011;989;53.016;8.346;2023-12-28T01:29:02;3.50;;;1.80;;
1977;SDS011;989;53.016;8.346;2023-12-28T01:31:28;2.63;;;1.73;;
1977;SDS011;989;53.016;8.346;2023-12-28T01:33:53;2.27;;;1.90;;
1977;SDS011;989;53.016;8.346;2023-12-28T01:36:18;2.60;;;1.53;;
1977;SDS011;989;53.016;8.346;2023-12-28T01:38:44;2.10;;;1.57;;
1977;SDS011;989;53.016;8.346;2023-12-28T01:41:09;4.90;;;2.50;;
1977;SDS011;989;53.016;8.346;2023-12-28T01:43:34;3.67;;;1.90;;
1977;SDS011;989;53.016;8.346;2023-12-28T01:46:00;2.53;;;1.47;;
1977;SDS011;989;53.016;8.346;2023-12-28T01:48:25;2.90;;;2.10;;
1977;SDS011;989;53.016;8.346;2023-12-28T01:50:50;1.53;;;1.30;;
1977;SDS011;989;53.016;8.346;2023-12-28T01:53:16;5.53;;;2.10;;
1977;SDS011;989;53.016;8.346;2023-12-28T01:55:41;3.70;;;2.27;;
1977;SDS011;989;53.016;8.346;2023-12-28T01:58:06;5.33;;;1.83;;
1977;SDS011;989;53.016;8.346;2023-12-28T02:00:32;10.03;;;2.40;;
1977;SDS011;989;53.016;8.346;2023-12-28T02:02:59;3.93;;;1.90;;
1977;SDS011;989;53.016;8.346;2023-12-28T02:05:25;4.23;;;1.77;;
1977;SDS011;989;53.016;8.346;2023-12-28T02:07:50;3.90;;;2.00;;
1977;SDS011;989;53.016;8.346;2023-12-28T02:10:15;2.83;;;1.80;;
1977;SDS011;989;53.016;8.346;2023-12-28T02:12:40;6.57;;;2.27;;
1977;SDS011;989;53.016;8.346;2023-12-28T02:15:06;3.57;;;2.20;;
1977;SDS011;989;53.016;8.346;2023-12-28T02:17:38;2.20;;;1.50;;
1977;SDS011;989;53.016;8.346;2023-12-28T02:20:07;5.03;;;1.67;;
1977;SDS011;989;53.016;8.346;2023-12-28T02:22:33;3.60;;;2.00;;
1977;SDS011;989;53.016;8.346;2023-12-28T02:27:38;2.87;;;2.03;;
1977;SDS011;989;53.016;8.346;2023-12-28T02:30:04;3.53;;;2.60;;
1977;SDS011;989;53.016;8.346;2023-12-28T02:32:33;2.33;;;2.13;;
1977;SDS011;989;53.016;8.346;2023-12-28T02:35:01;1.80;;;1.43;;
1977;SDS011;989;53.016;8.346;2023-12-28T02:37:29;2.23;;;1.63;;
1977;SDS011;989;53.016;8.346;2023-12-28T02:39:55;1.70;;;1.60;;
1977;SDS011;989;53.016;8.346;2023-12-28T02:42:20;2.87;;;2.20;;
1977;SDS011;989;53.016;8.346;2023-12-28T02:44:46;2.30;;;1.63;;
1977;SDS011;989;53.016;8.346;2023-12-28T02:47:11;3.40;;;1.73;;
1977;SDS011;989;53.016;8.346;2023-12-28T02:49:36;3.70;;;2.20;;
1977;SDS011;989;53.016;8.346;2023-12-28T02:52:02;2.77;;;2.30;;
1977;SDS011;989;53.016;8.346;2023-12-28T02:54:27;3.33;;;1.93;;
1977;SDS011;989;53.016;8.346;2023-12-28T02:56:52;2.57;;;2.27;;
1977;SDS011;989;53.016;8.346;2023-12-28T02:59:17;2.80;;;1.67;;
1977;SDS011;989;53.016;8.346;2023-12-28T03:01:42;2.10;;;1.73;;
1977;SDS011;989;53.016;8.346;2023-12-28T03:04:08;9.63;;;2.20;;
1977;SDS011;989;53.016;8.346;2023-12-28T03:06:34;4.40;;;1.83;;
1977;SDS011;989;53.016;8.346;2023-12-28T03:09:00;2.90;;;2.03;;
1977;SDS011;989;53.016;8.346;2023-12-28T03:11:25;3.63;;;1.97;;
1977;SDS011;989;53.016;8.346;2023-12-28T03:13:50;7.63;;;2.07;;
1977;SDS011;989;53.016;8.346;2023-12-28T03:16:16;1.93;;;1.80;;
1977;SDS011;989;53.016;8.346;2023-12-28T03:18:41;5.73;;;2.43;;
1977;SDS011;989;53.016;8.346;2023-12-28T03:21:06;4.30;;;2.30;;
1977;SDS011;989;53.016;8.346;2023-12-28T03:23:31;4.03;;;2.23;;
1977;SDS011;989;53.016;8.346;2023-12-28T03:25:56;3.60;;;1.70;;
1977;SDS011;989;53.016;8.346;2023-12-28T03:28:21;3.10;;;2.13;;
1977;SDS011;989;53.016;8.346;2023-12-28T03:30:47;4.97;;;2.70;;
1977;SDS011;989;53.016;8.346;2023-12-28T03:33:12;4.10;;;2.00;;
1977;SDS011;989;53.016;8.346;2023-12-28T03:35:37;2.97;;;1.63;;
1977;SDS011;989;53.016;8.346;2023-12-28T03:38:02;2.60;;;2.10;;
1977;SDS011;989;53.016;8.346;2023-12-28T03:40:27;2.20;;;2.00;;
1977;SDS011;989;53.016;8.346;2023-12-28T03:42:53;5.63;;;1.90;;
1977;SDS011;989;53.016;8.346;2023-12-28T03:45:18;2.37;;;1.77;;
1977;SDS011;989;53.016;8.346;2023-12-28T03:47:43;6.03;;;2.10;;
1977;SDS011;989;53.016;8.346;2023-12-28T03:50:08;3.87;;;1.97;;
1977;SDS011;989;53.016;8.346;2023-12-28T03:52:34;2.30;;;2.10;;
1977;SDS011;989;53.016;8.346;2023-12-28T03:54:59;5.30;;;2.30;;
1977;SDS011;989;53.016;8.346;2023-12-28T03:57:25;6.03;;;2.13;;
1977;SDS011;989;53.016;8.346;2023-12-28T03:59:50;4.73;;;1.63;;
1977;SDS011;989;53.016;8.346;2023-12-28T04:02:15;3.13;;;1.80;;
1977;SDS011;989;53.016;8.346;2023-12-28T04:04:40;2.90;;;2.27;;
1977;SDS011;989;53.016;8.346;2023-12-28T04:07:06;3.03;;;2.23;;
1977;SDS011;989;53.016;8.346;2023-12-28T04:09:34;3.40;;;2.20;;
1977;SDS011;989;53.016;8.346;2023-12-28T04:11:59;2.80;;;1.80;;
1977;SDS011;989;53.016;8.346;2023-12-28T04:14:24;4.10;;;2.13;;
1977;SDS011;989;53.016;8.346;2023-12-28T04:16:49;3.70;;;2.20;;
1977;SDS011;989;53.016;8.346;2023-12-28T04:19:14;3.10;;;1.90;;
1977;SDS011;989;53.016;8.346;2023-12-28T04:21:42;1.83;;;1.67;;
1977;SDS011;989;53.016;8.346;2023-12-28T04:24:07;5.17;;;2.47;;
1977;SDS011;989;53.016;8.346;2023-12-28T04:26:32;2.93;;;1.70;;
1977;SDS011;989;53.016;8.346;2023-12-28T04:28:58;4.63;;;1.87;;
1977;SDS011;989;53.016;8.346;2023-12-28T04:31:24;2.50;;;1.90;;
1977;SDS011;989;53.016;8.346;2023-12-28T04:33:49;4.40;;;2.30;;
1977;SDS011;989;53.016;8.346;2023-12-28T04:36:14;1.70;;;1.60;;
1977;SDS011;989;53.016;8.346;2023-12-28T04:38:39;2.97;;;1.70;;
1977;SDS011;989;53.016;8.346;2023-12-28T04:41:04;4.30;;;1.93;;
1977;SDS011;989;53.016;8.346;2023-12-28T04:43:30;2.40;;;1.70;;
1977;SDS011;989;53.016;8.346;2023-12-28T04:45:55;1.90;;;1.80;;
1977;SDS011;989;53.016;8.346;2023-12-28T04:48:20;5.20;;;2.27;;
1977;SDS011;989;53.016;8.346;2023-12-28T04:50:49;3.30;;;1.80;;
1977;SDS011;989;53.016;8.346;2023-12-28T04:53:14;4.20;;;1.90;;
1977;SDS011;989;53.016;8.346;2023-12-28T04:55:40;2.00;;;1.70;;
1977;SDS011;989;53.016;8.346;2023-12-28T04:58:05;1.90;;;1.70;;
1977;SDS011;989;53.016;8.346;2023-12-28T05:00:30;2.17;;;1.70;;
1977;SDS011;989;53.016;8.346;2023-12-28T05:02:55;6.90;;;1.63;;
1977;SDS011;989;53.016;8.346;2023-12-28T05:05:20;3.33;;;2.10;;
1977;SDS011;989;53.016;8.346;2023-12-28T05:07:45;2.43;;;1.73;;
1977;SDS011;989;53.016;8.346;2023-12-28T05:10:11;5.17;;;1.70;;
1977;SDS011;989;53.016;8.346;2023-12-28T05:12:36;2.43;;;1.70;;
1977;SDS011;989;53.016;8.346;2023-12-28T05:15:01;4.07;;;2.27;;
1977;SDS011;989;53.016;8.346;2023-12-28T05:17:26;6.40;;;2.10;;
1977;SDS011;989;53.016;8.346;2023-12-28T05:19:52;6.13;;;2.80;;
1977;SDS011;989;53.016;8.346;2023-12-28T05:22:17;3.43;;;2.07;;
1977;SDS011;989;53.016;8.346;2023-12-28T05:24:42;3.57;;;1.90;;
1977;SDS011;989;53.016;8.346;2023-12-28T05:27:07;5.93;;;1.67;;
1977;SDS011;989;53.016;8.346;2023-12-28T05:29:32;3.37;;;1.90;;
1977;SDS011;989;53.016;8.346;2023-12-28T05:31:57;5.70;;;2.23;;
1977;SDS011;989;53.016;8.346;2023-12-28T05:34:23;6.63;;;2.70;;
1977;SDS011;989;53.016;8.346;2023-12-28T05:36:48;4.53;;;1.83;;
1977;SDS011;989;53.016;8.346;2023-12-28T05:39:13;3.07;;;1.63;;
1977;SDS011;989;53.016;8.346;2023-12-28T05:41:39;3.47;;;2.20;;
1977;SDS011;989;53.016;8.346;2023-12-28T05:44:05;3.07;;;1.40;;
1977;SDS011;989;53.016;8.346;2023-12-28T05:46:30;5.43;;;1.83;;
1977;SDS011;989;53.016;8.346;2023-12-28T05:48:55;3.17;;;1.53;;
1977;SDS011;989;53.016;8.346;2023-12-28T05:51:20;4.13;;;1.83;;
1977;SDS011;989;53.016;8.346;2023-12-28T05:53:46;6.23;;;2.20;;
1977;SDS011;989;53.016;8.346;2023-12-28T05:56:11;1.30;;;1.13;;
1977;SDS011;989;53.016;8.346;2023-12-28T05:58:36;3.10;;;1.83;;
1977;SDS011;989;53.016;8.346;2023-12-28T06:01:03;2.30;;;1.70;;
1977;SDS011;989;53.016;8.346;2023-12-28T06:03:30;5.37;;;1.83;;
1977;SDS011;989;53.016;8.346;2023-12-28T06:05:55;6.43;;;2.47;;
1977;SDS011;989;53.016;8.346;2023-12-28T06:08:20;3.40;;;1.93;;
1977;SDS011;989;53.016;8.346;2023-12-28T06:10:46;8.43;;;2.70;;
1977;SDS011;989;53.016;8.346;2023-12-28T06:13:11;3.30;;;2.00;;
1977;SDS011;989;53.016;8.346;2023-12-28T06:15:36;5.30;;;1.97;;
1977;SDS011;989;53.016;8.346;2023-12-28T06:18:01;3.00;;;1.60;;
1977;SDS011;989;53.016;8.346;2023-12-28T06:20:27;3.50;;;1.77;;
1977;SDS011;989;53.016;8.346;2023-12-28T06:22:53;5.53;;;1.73;;
1977;SDS011;989;53.016;8.346;2023-12-28T06:25:18;10.10;;;1.90;;
1977;SDS011;989;53.016;8.346;2023-12-28T06:27:43;2.60;;;1.77;;
1977;SDS011;989;53.016;8.346;2023-12-28T06:30:09;2.40;;;1.70;;
1977;SDS011;989;53.016;8.346;2023-12-28T06:32:34;2.60;;;1.30;;
1977;SDS011;989;53.016;8.346;2023-12-28T06:34:59;5.13;;;2.47;;
1977;SDS011;989;53.016;8.346;2023-12-28T06:37:24;6.43;;;1.70;;
1977;SDS011;989;53.016;8.346;2023-12-28T06:39:49;3.60;;;1.90;;
1977;SDS011;989;53.016;8.346;2023-12-28T06:42:15;10.10;;;2.10;;
1977;SDS011;989;53.016;8.346;2023-12-28T06:44:40;1.97;;;1.27;;
1977;SDS011;989;53.016;8.346;2023-12-28T06:47:05;3.87;;;1.73;;
1977;SDS011;989;53.016;8.346;2023-12-28T06:49:31;6.47;;;2.13;;
1977;SDS011;989;53.016;8.346;2023-12-28T06:51:56;5.73;;;1.53;;
1977;SDS011;989;53.016;8.346;2023-12-28T06:54:21;5.80;;;2.13;;
1977;SDS011;989;53.016;8.346;2023-12-28T06:56:46;10.37;;;2.23;;
1977;SDS011;989;53.016;8.346;2023-12-28T06:59:11;13.50;;;2.50;;
1977;SDS011;989;53.016;8.346;2023-12-28T07:01:40;3.47;;;1.20;;
1977;SDS011;989;53.016;8.346;2023-12-28T07:04:05;6.37;;;1.90;;
1977;SDS011;989;53.016;8.346;2023-12-28T07:06:31;4.53;;;1.80;;
1977;SDS011;989;53.016;8.346;2023-12-28T07:08:56;8.20;;;2.20;;
1977;SDS011;989;53.016;8.346;2023-12-28T07:11:21;11.05;;;1.73;;
1977;SDS011;989;53.016;8.346;2023-12-28T07:13:47;8.20;;;2.43;;
1977;SDS011;989;53.016;8.346;2023-12-28T07:16:12;14.67;;;2.27;;
1977;SDS011;989;53.016;8.346;2023-12-28T07:18:37;4.13;;;1.70;;
1977;SDS011;989;53.016;8.346;2023-12-28T07:21:03;13.33;;;1.90;;
1977;SDS011;989;53.016;8.346;2023-12-28T07:23:28;9.47;;;2.17;;
1977;SDS011;989;53.016;8.346;2023-12-28T07:25:53;5.43;;;1.90;;
1977;SDS011;989;53.016;8.346;2023-12-28T07:28:18;8.93;;;1.90;;
1977;SDS011;989;53.016;8.346;2023-12-28T07:30:43;6.00;;;1.77;;
1977;SDS011;989;53.016;8.346;2023-12-28T07:33:09;13.90;;;2.30;;
1977;SDS011;989;53.016;8.346;2023-12-28T07:35:34;12.60;;;1.90;;
1977;SDS011;989;53.016;8.346;2023-12-28T07:37:59;11.07;;;2.30;;
1977;SDS011;989;53.016;8.346;2023-12-28T07:40:24;6.73;;;2.37;;
1977;SDS011;989;53.016;8.346;2023-12-28T07:42:50;5.20;;;1.73;;
1977;SDS011;989;53.016;8.346;2023-12-28T07:45:15;8.13;;;1.43;;
1977;SDS011;989;53.016;8.346;2023-12-28T07:47:42;14.30;;;2.67;;
1977;SDS011;989;53.016;8.346;2023-12-28T07:50:07;9.37;;;2.20;;
1977;SDS011;989;53.016;8.346;2023-12-28T07:52:33;4.90;;;2.47;;
1977;SDS011;989;53.016;8.346;2023-12-28T07:54:58;7.10;;;1.80;;
1977;SDS011;989;53.016;8.346;2023-12-28T07:57:24;11.50;;;2.30;;
1977;SDS011;989;53.016;8.346;2023-12-28T07:59:49;10.33;;;1.87;;
1977;SDS011;989;53.016;8.346;2023-12-28T08:02:14;11.83;;;2.13;;
1977;SDS011;989;53.016;8.346;2023-12-28T08:04:40;9.97;;;1.83;;
1977;SDS011;989;53.016;8.346;2023-12-28T08:07:05;12.10;;;1.80;;
1977;SDS011;989;53.016;8.346;2023-12-28T08:09:32;4.97;;;1.83;;
1977;SDS011;989;53.016;8.346;2023-12-28T08:11:57;5.23;;;2.33;;
1977;SDS011;989;53.016;8.346;2023-12-28T08:14:22;15.17;;;2.77;;
1977;SDS011;989;53.016;8.346;2023-12-28T08:16:47;9.87;;;1.47;;
1977;SDS011;989;53.016;8.346;2023-12-28T08:19:12;18.60;;;3.07;;
1977;SDS011;989;53.016;8.346;2023-12-28T08:21:38;5.60;;;1.70;;
1977;SDS011;989;53.016;8.346;2023-12-28T08:24:03;7.37;;;1.90;;
1977;SDS011;989;53.016;8.346;2023-12-28T08:26:28;7.37;;;1.73;;
1977;SDS011;989;53.016;8.346;2023-12-28T08:28:54;9.07;;;1.90;;
1977;SDS011;989;53.016;8.346;2023-12-28T08:31:19;12.90;;;1.80;;
1977;SDS011;989;53.016;8.346;2023-12-28T08:33:44;4.60;;;1.70;;
1977;SDS011;989;53.016;8.346;2023-12-28T08:36:09;12.60;;;3.20;;
1977;SDS011;989;53.016;8.346;2023-12-28T08:38:36;26.73;;;2.90;;
1977;SDS011;989;53.016;8.346;2023-12-28T08:41:02;11.13;;;3.40;;
1977;SDS011;989;53.016;8.346;2023-12-28T08:43:28;6.87;;;1.90;;
1977;SDS011;989;53.016;8.346;2023-12-28T08:45:53;13.20;;;2.63;;
1977;SDS011;989;53.016;8.346;2023-12-28T08:48:19;14.03;;;2.50;;
1977;SDS011;989;53.016;8.346;2023-12-28T08:50:45;12.03;;;3.40;;
1977;SDS011;989;53.016;8.346;2023-12-28T08:53:10;19.50;;;3.70;;
1977;SDS011;989;53.016;8.346;2023-12-28T08:55:36;8.13;;;2.53;;
1977;SDS011;989;53.016;8.346;2023-12-28T08:58:01;8.60;;;2.53;;
1977;SDS011;989;53.016;8.346;2023-12-28T09:00:26;4.73;;;1.90;;
1977;SDS011;989;53.016;8.346;2023-12-28T09:02:52;6.93;;;2.60;;
1977;SDS011;989;53.016;8.346;2023-12-28T09:05:17;9.10;;;2.63;;
1977;SDS011;989;53.016;8.346;2023-12-28T09:07:42;11.23;;;2.43;;
1977;SDS011;989;53.016;8.346;2023-12-28T09:10:11;11.13;;;2.30;;
1977;SDS011;989;53.016;8.346;2023-12-28T09:12:36;6.50;;;2.20;;
1977;SDS011;989;53.016;8.346;2023-12-28T09:15:03;13.33;;;2.27;;
1977;SDS011;989;53.016;8.346;2023-12-28T09:17:28;9.43;;;2.37;;
1977;SDS011;989;53.016;8.346;2023-12-28T09:19:53;9.97;;;2.10;;
1977;SDS011;989;53.016;8.346;2023-12-28T09:22:18;6.07;;;2.10;;
1977;SDS011;989;53.016;8.346;2023-12-28T09:24:43;8.00;;;1.87;;
1977;SDS011;989;53.016;8.346;2023-12-28T09:27:09;11.10;;;2.00;;
1977;SDS011;989;53.016;8.346;2023-12-28T09:29:34;9.60;;;3.00;;
1977;SDS011;989;53.016;8.346;2023-12-28T09:32:00;7.70;;;2.63;;
1977;SDS011;989;53.016;8.346;2023-12-28T09:34:25;5.10;;;1.87;;
1977;SDS011;989;53.016;8.346;2023-12-28T09:36:50;11.13;;;3.00;;
1977;SDS011;989;53.016;8.346;2023-12-28T09:39:15;12.07;;;2.50;;
1977;SDS011;989;53.016;8.346;2023-12-28T09:41:42;15.60;;;2.30;;
1977;SDS011;989;53.016;8.346;2023-12-28T09:44:11;7.23;;;2.00;;
1977;SDS011;989;53.016;8.346;2023-12-28T09:46:37;15.87;;;2.17;;
1977;SDS011;989;53.016;8.346;2023-12-28T09:49:04;9.87;;;3.33;;
1977;SDS011;989;53.016;8.346;2023-12-28T09:51:29;16.27;;;3.53;;
1977;SDS011;989;53.016;8.346;2023-12-28T09:53:55;12.23;;;2.17;;
1977;SDS011;989;53.016;8.346;2023-12-28T09:56:20;15.10;;;3.53;;
1977;SDS011;989;53.016;8.346;2023-12-28T09:58:46;12.20;;;2.43;;
1977;SDS011;989;53.016;8.346;2023-12-28T10:01:11;11.00;;;2.37;;
1977;SDS011;989;53.016;8.346;2023-12-28T10:03:38;8.20;;;2.50;;
1977;SDS011;989;53.016;8.346;2023-12-28T10:06:04;11.93;;;3.07;;
1977;SDS011;989;53.016;8.346;2023-12-28T10:08:29;17.30;;;3.73;;
1977;SDS011;989;53.016;8.346;2023-12-28T10:10:54;14.90;;;3.47;;
1977;SDS011;989;53.016;8.346;2023-12-28T10:13:20;15.63;;;3.43;;
1977;SDS011;989;53.016;8.346;2023-12-28T10:15:45;9.93;;;2.30;;
1977;SDS011;989;53.016;8.346;2023-12-28T10:18:10;9.33;;;2.80;;
1977;SDS011;989;53.016;8.346;2023-12-28T10:20:36;9.07;;;2.60;;
1977;SDS011;989;53.016;8.346;2023-12-28T10:23:01;12.13;;;2.90;;
1977;SDS011;989;53.016;8.346;2023-12-28T10:25:31;10.23;;;2.70;;
1977;SDS011;989;53.016;8.346;2023-12-28T10:27:56;9.67;;;2.30;;
1977;SDS011;989;53.016;8.346;2023-12-28T10:30:21;11.30;;;2.73;;
1977;SDS011;989;53.016;8.346;2023-12-28T10:32:47;12.43;;;2.90;;
1977;SDS011;989;53.016;8.346;2023-12-28T10:35:12;7.13;;;2.30;;
1977;SDS011;989;53.016;8.346;2023-12-28T10:37:39;9.50;;;2.40;;
1977;SDS011;989;53.016;8.346;2023-12-28T10:40:05;27.57;;;3.67;;
1977;SDS011;989;53.016;8.346;2023-12-28T10:42:31;9.30;;;3.00;;
1977;SDS011;989;53.016;8.346;2023-12-28T10:45:03;13.57;;;3.57;;
1977;SDS011;989;53.016;8.346;2023-12-28T10:47:33;13.13;;;2.70;;
1977;SDS011;989;53.016;8.346;2023-12-28T10:50:02;13.33;;;2.80;;
1977;SDS011;989;53.016;8.346;2023-12-28T10:52:28;13.00;;;2.60;;
1977;SDS011;989;53.016;8.346;2023-12-28T10:54:58;9.97;;;2.80;;
1977;SDS011;989;53.016;8.346;2023-12-28T10:57:29;10.90;;;2.40;;
1977;SDS011;989;53.016;8.346;2023-12-28T11:02:24;9.27;;;2.95;;
1977;SDS011;989;53.016;8.346;2023-12-28T11:04:53;17.20;;;3.00;;
1977;SDS011;989;53.016;8.346;2023-12-28T11:07:18;13.37;;;3.13;;
1977;SDS011;989;53.016;8.346;2023-12-28T11:09:45;13.70;;;2.17;;
1977;SDS011;989;53.016;8.346;2023-12-28T11:12:11;17.80;;;2.73;;
1977;SDS011;989;53.016;8.346;2023-12-28T11:14:39;12.97;;;2.30;;
1977;SDS011;989;53.016;8.346;2023-12-28T11:17:04;15.70;;;2.83;;
1977;SDS011;989;53.016;8.346;2023-12-28T11:19:30;18.20;;;3.27;;
1977;SDS011;989;53.016;8.346;2023-12-28T11:21:55;12.87;;;2.50;;
1977;SDS011;989;53.016;8.346;2023-12-28T11:24:22;14.63;;;2.60;;
1977;SDS011;989;53.016;8.346;2023-12-28T11:26:54;12.53;;;3.80;;
1977;SDS011;989;53.016;8.346;2023-12-28T11:29:19;14.37;;;3.67;;
1977;SDS011;989;53.016;8.346;2023-12-28T11:31:45;12.90;;;2.53;;
1977;SDS011;989;53.016;8.346;2023-12-28T11:34:15;14.93;;;2.70;;
1977;SDS011;989;53.016;8.346;2023-12-28T11:36:52;16.70;;;3.50;;
1977;SDS011;989;53.016;8.346;2023-12-28T11:39:20;5.40;;;2.30;;
1977;SDS011;989;53.016;8.346;2023-12-28T11:41:45;14.67;;;2.67;;
1977;SDS011;989;53.016;8.346;2023-12-28T11:44:10;20.90;;;4.43;;
1977;SDS011;989;53.016;8.346;2023-12-28T11:46:35;16.83;;;2.97;;
1977;SDS011;989;53.016;8.346;2023-12-28T11:49:07;9.43;;;2.87;;
1977;SDS011;989;53.016;8.346;2023-12-28T11:51:36;17.77;;;4.80;;
1977;SDS011;989;53.016;8.346;2023-12-28T11:54:02;10.90;;;3.33;;
1977;SDS011;989;53.016;8.346;2023-12-28T11:56:28;23.40;;;3.20;;
1977;SDS011;989;53.016;8.346;2023-12-28T11:58:53;11.57;;;2.33;;
1977;SDS011;989;53.016;8.346;2023-12-28T12:01:18;15.00;;;2.93;;
1977;SDS011;989;53.016;8.346;2023-12-28T12:03:44;11.43;;;2.33;;
1977;SDS011;989;53.016;8.346;2023-12-28T12:06:09;18.03;;;3.67;;
1977;SDS011;989;53.016;8.346;2023-12-28T12:08:35;11.77;;;2.30;;
1977;SDS011;989;53.016;8.346;2023-12-28T12:11:04;12.17;;;3.43;;
1977;SDS011;989;53.016;8.346;2023-12-28T12:13:30;14.60;;;2.63;;
1977;SDS011;989;53.016;8.346;2023-12-28T12:15:55;10.07;;;2.97;;
1977;SDS011;989;53.016;8.346;2023-12-28T12:18:22;18.00;;;6.07;;
1977;SDS011;989;53.016;8.346;2023-12-28T12:20:47;15.73;;;2.10;;
1977;SDS011;989;53.016;8.346;2023-12-28T12:23:12;21.70;;;3.43;;
1977;SDS011;989;53.016;8.346;2023-12-28T12:25:38;9.33;;;3.20;;
1977;SDS011;989;53.016;8.346;2023-12-28T12:28:03;9.63;;;2.33;;
1977;SDS011;989;53.016;8.346;2023-12-28T12:30:29;12.10;;;3.40;;
1977;SDS011;989;53.016;8.346;2023-12-28T12:32:54;14.70;;;3.20;;
1977;SDS011;989;53.016;8.346;2023-12-28T12:35:19;17.27;;;3.40;;
1977;SDS011;989;53.016;8.346;2023-12-28T12:37:46;11.70;;;2.87;;
1977;SDS011;989;53.016;8.346;2023-12-28T12:40:12;12.13;;;3.10;;
1977;SDS011;989;53.016;8.346;2023-12-28T12:42:37;10.90;;;3.00;;
1977;SDS011;989;53.016;8.346;2023-12-28T12:45:03;18.43;;;3.13;;
1977;SDS011;989;53.016;8.346;2023-12-28T12:47:32;16.10;;;4.70;;
1977;SDS011;989;53.016;8.346;2023-12-28T12:49:59;10.40;;;2.20;;
1977;SDS011;989;53.016;8.346;2023-12-28T12:52:25;14.27;;;2.93;;
1977;SDS011;989;53.016;8.346;2023-12-28T12:54:55;7.93;;;2.30;;
1977;SDS011;989;53.016;8.346;2023-12-28T12:57:20;10.80;;;2.77;;
1977;SDS011;989;53.016;8.346;2023-12-28T12:59:46;20.60;;;2.60;;
1977;SDS011;989;53.016;8.346;2023-12-28T13:02:11;9.67;;;2.40;;
1977;SDS011;989;53.016;8.346;2023-12-28T13:04:38;22.17;;;2.50;;
1977;SDS011;989;53.016;8.346;2023-12-28T13:07:03;13.40;;;2.17;;
1977;SDS011;989;53.016;8.346;2023-12-28T13:09:28;8.60;;;1.90;;
1977;SDS011;989;53.016;8.346;2023-12-28T13:11:54;11.90;;;2.90;;
1977;SDS011;989;53.016;8.346;2023-12-28T13:14:23;17.97;;;2.90;;
1977;SDS011;989;53.016;8.346;2023-12-28T13:16:48;12.17;;;2.40;;
1977;SDS011;989;53.016;8.346;2023-12-28T13:19:19;10.50;;;2.40;;
1977;SDS011;989;53.016;8.346;2023-12-28T13:21:44;12.30;;;2.10;;
1977;SDS011;989;53.016;8.346;2023-12-28T13:24:09;14.87;;;2.03;;
1977;SDS011;989;53.016;8.346;2023-12-28T13:26:34;20.50;;;3.40;;
1977;SDS011;989;53.016;8.346;2023-12-28T13:29:00;11.83;;;2.37;;
1977;SDS011;989;53.016;8.346;2023-12-28T13:31:25;7.43;;;2.40;;
1977;SDS011;989;53.016;8.346;2023-12-28T13:33:51;12.53;;;2.40;;
1977;SDS011;989;53.016;8.346;2023-12-28T13:36:16;20.60;;;2.63;;
1977;SDS011;989;53.016;8.346;2023-12-28T13:38:43;22.50;;;2.97;;
1977;SDS011;989;53.016;8.346;2023-12-28T13:41:08;10.50;;;2.70;;
1977;SDS011;989;53.016;8.346;2023-12-28T13:43:33;19.20;;;2.67;;
1977;SDS011;989;53.016;8.346;2023-12-28T13:45:59;11.97;;;3.17;;
1977;SDS011;989;53.016;8.346;2023-12-28T13:48:24;12.63;;;2.80;;
1977;SDS011;989;53.016;8.346;2023-12-28T13:50:49;11.77;;;2.53;;
1977;SDS011;989;53.016;8.346;2023-12-28T13:53:16;9.93;;;2.83;;
1977;SDS011;989;53.016;8.346;2023-12-28T13:55:41;15.27;;;2.70;;
1977;SDS011;989;53.016;8.346;2023-12-28T13:58:06;8.87;;;3.10;;
1977;SDS011;989;53.016;8.346;2023-12-28T14:00:32;7.57;;;2.43;;
1977;SDS011;989;53.016;8.346;2023-12-28T14:02:57;10.05;;;2.33;;
1977;SDS011;989;53.016;8.346;2023-12-28T14:05:24;14.00;;;1.90;;
1977;SDS011;989;53.016;8.346;2023-12-28T14:07:49;17.93;;;4.20;;
1977;SDS011;989;53.016;8.346;2023-12-28T14:10:15;15.67;;;3.03;;
1977;SDS011;989;53.016;8.346;2023-12-28T14:12:40;20.70;;;4.40;;
1977;SDS011;989;53.016;8.346;2023-12-28T14:15:05;10.27;;;2.63;;
1977;SDS011;989;53.016;8.346;2023-12-28T14:17:32;11.90;;;3.10;;
1977;SDS011;989;53.016;8.346;2023-12-28T14:19:57;20.23;;;2.93;;
1977;SDS011;989;53.016;8.346;2023-12-28T14:22:22;10.90;;;2.83;;
1977;SDS011;989;53.016;8.346;2023-12-28T14:24:48;14.90;;;3.00;;
1977;SDS011;989;53.016;8.346;2023-12-28T14:27:13;17.10;;;3.50;;
1977;SDS011;989;53.016;8.346;2023-12-28T14:29:39;15.13;;;3.17;;
1977;SDS011;989;53.016;8.346;2023-12-28T14:32:04;20.73;;;2.60;;
1977;SDS011;989;53.016;8.346;2023-12-28T14:34:29;16.40;;;3.93;;
1977;SDS011;989;53.016;8.346;2023-12-28T14:36:56;11.57;;;2.87;;
1977;SDS011;989;53.016;8.346;2023-12-28T14:39:22;13.07;;;3.17;;
1977;SDS011;989;53.016;8.346;2023-12-28T14:41:47;16.80;;;2.50;;
1977;SDS011;989;53.016;8.346;2023-12-28T14:44:12;12.07;;;3.00;;
1977;SDS011;989;53.016;8.346;2023-12-28T14:46:38;18.23;;;3.00;;
1977;SDS011;989;53.016;8.346;2023-12-28T14:49:03;11.77;;;2.50;;
1977;SDS011;989;53.016;8.346;2023-12-28T14:51:31;20.27;;;2.70;;
1977;SDS011;989;53.016;8.346;2023-12-28T14:53:57;13.07;;;2.57;;
1977;SDS011;989;53.016;8.346;2023-12-28T14:56:22;8.40;;;2.20;;
1977;SDS011;989;53.016;8.346;2023-12-28T14:58:47;12.50;;;2.03;;
1977;SDS011;989;53.016;8.346;2023-12-28T15:01:16;15.93;;;3.07;;
1977;SDS011;989;53.016;8.346;2023-12-28T15:03:42;15.57;;;2.57;;
1977;SDS011;989;53.016;8.346;2023-12-28T15:06:07;19.60;;;3.13;;
1977;SDS011;989;53.016;8.346;2023-12-28T15:08:32;10.63;;;2.10;;
1977;SDS011;989;53.016;8.346;2023-12-28T15:10:58;12.23;;;2.10;;
1977;SDS011;989;53.016;8.346;2023-12-28T15:13:23;10.53;;;1.93;;
1977;SDS011;989;53.016;8.346;2023-12-28T15:15:48;19.53;;;2.90;;
1977;SDS011;989;53.016;8.346;2023-12-28T15:18:15;9.30;;;2.87;;
1977;SDS011;989;53.016;8.346;2023-12-28T15:20:42;11.00;;;3.20;;